Time;durP1;ratioP1;P1;durP2;ratioP2;P2;SDS_P1;SDS_P2;PMS_P1;PMS_P2;Temp;Humidity;BMP_temperature;BMP_pressure;BME280_temperature;BME280_humidity;BME280_pressure;Samples;Min_cycle;Max_cycle;Signal;HPM_P1;HPM_P2
2023/05/06 00:00:05;;;;;;;22.60;16.58;;;;;;;;;;5011223;28;20054;-82
2023/05/06 00:02:32;;;;;;;30.13;18.48;;;;;;;;;;5011279;28;20104;-83
2023/05/06 00:04:59;;;;;;;17.95;13.98;;;;;;;;;;5012702;28;20065;-83
2023/05/06 00:07:27;;;;;;;14.73;13.18;;;;;;;;;;5011204;28;20388;-83
2023/05/06 00:09:54;;;;;;;20.00;14.90;;;;;;;;;;5015155;28;20046;-83
2023/05/06 00:12:21;;;;;;;19.08;14.30;;;;;;;;;;5014932;28;20050;-84
2023/05/06 00:14:48;;;;;;;18.33;12.90;;;;;;;;;;5015859;28;20058;-83
2023/05/06 00:17:15;;;;;;;16.27;12.63;;;;;;;;;;5014815;28;20050;-83
2023/05/06 00:19:43;;;;;;;17.85;12.98;;;;;;;;;;5014628;28;20053;-83
2023/05/06 00:22:10;;;;;;;17.63;11.43;;;;;;;;;;5015237;28;20494;-83
2023/05/06 00:24:37;;;;;;;13.20;11.63;;;;;;;;;;5014978;28;20077;-83
2023/05/06 00:27:04;;;;;;;15.60;12.18;;;;;;;;;;5015659;28;20048;-83
2023/05/06 00:29:32;;;;;;;17.50;12.48;;;;;;;;;;5015733;28;20053;-83
2023/05/06 00:31:59;;;;;;;13.85;12.45;;;;;;;;;;5014428;28;20052;-83
2023/05/06 00:34:27;;;;;;;19.88;13.73;;;;;;;;;;5014170;28;20054;-83
2023/05/06 00:36:54;;;;;;;20.02;13.45;;;;;;;;;;5014456;28;20410;-83
2023/05/06 00:39:21;;;;;;;15.38;13.55;;;;;;;;;;5014193;28;20048;-83
2023/05/06 00:41:48;;;;;;;18.98;14.05;;;;;;;;;;5014346;28;20058;-84
2023/05/06 00:44:15;;;;;;;16.17;13.60;;;;;;;;;;5015279;28;20057;-83
2023/05/06 00:46:43;;;;;;;16.73;13.27;;;;;;;;;;5015140;28;20050;-83
2023/05/06 00:49:12;;;;;;;17.05;13.35;;;;;;;;;;5015285;28;20056;-83
2023/05/06 00:51:39;;;;;;;18.83;14.07;;;;;;;;;;5014292;28;20058;-84
2023/05/06 00:54:06;;;;;;;14.20;12.68;;;;;;;;;;5013822;28;20081;-84
2023/05/06 00:56:33;;;;;;;16.67;13.02;;;;;;;;;;5014026;28;20054;-84
2023/05/06 00:59:01;;;;;;;15.48;13.10;;;;;;;;;;5014144;28;20050;-84
2023/05/06 01:01:30;;;;;;;14.90;11.88;;;;;;;;;;5014059;28;20096;-83
2023/05/06 01:03:57;;;;;;;13.57;12.18;;;;;;;;;;5015217;28;20115;-83
2023/05/06 01:06:37;;;;;;;14.23;12.70;;;;;;;;;;5013838;28;20049;-83
2023/05/06 01:09:11;;;;;;;13.32;11.90;;;;;;;;;;5014856;28;20057;-84
2023/05/06 01:11:50;;;;;;;15.18;12.65;;;;;;;;;;5013853;28;20045;-83
2023/05/06 01:14:24;;;;;;;17.17;13.25;;;;;;;;;;5014677;28;20524;-83
2023/05/06 01:16:53;;;;;;;16.88;12.98;;;;;;;;;;5014813;28;20045;-83
2023/05/06 01:19:50;;;;;;;14.20;12.48;;;;;;;;;;5013526;28;20065;-83
2023/05/06 01:22:18;;;;;;;16.65;13.20;;;;;;;;;;5012750;28;20054;-83
2023/05/06 01:24:45;;;;;;;17.40;12.93;;;;;;;;;;5013321;28;20049;-83
2023/05/06 01:27:13;;;;;;;17.45;12.55;;;;;;;;;;5013324;28;20149;-83
2023/05/06 01:29:41;;;;;;;15.57;12.68;;;;;;;;;;5013271;28;20056;-83
2023/05/06 01:32:11;;;;;;;19.77;13.32;;;;;;;;;;5014357;28;20056;-82
2023/05/06 01:34:59;;;;;;;17.67;14.23;;;;;;;;;;5014168;28;20406;-83
2023/05/06 01:37:31;;;;;;;19.30;14.10;;;;;;;;;;5013008;28;20049;-83
2023/05/06 01:40:00;;;;;;;16.52;13.98;;;;;;;;;;5013037;28;20056;-83
2023/05/06 01:42:27;;;;;;;20.45;14.02;;;;;;;;;;5013196;28;20463;-83
2023/05/06 01:44:55;;;;;;;20.25;14.98;;;;;;;;;;5013034;28;20054;-83
2023/05/06 01:47:22;;;;;;;17.33;14.32;;;;;;;;;;5012882;28;20046;-83
2023/05/06 01:49:50;;;;;;;18.20;14.23;;;;;;;;;;5012796;28;20053;-83
2023/05/06 01:52:17;;;;;;;19.65;14.75;;;;;;;;;;5012331;28;20054;-83
2023/05/06 01:54:44;;;;;;;20.25;16.27;;;;;;;;;;5013617;28;20486;-83
2023/05/06 01:57:11;;;;;;;22.50;16.30;;;;;;;;;;5013008;28;20178;-83
2023/05/06 01:59:38;;;;;;;18.63;15.40;;;;;;;;;;5012861;28;20133;-83
2023/05/06 02:02:06;;;;;;;19.60;14.52;;;;;;;;;;5012733;28;20445;-84
2023/05/06 02:04:34;;;;;;;18.80;13.68;;;;;;;;;;5012483;28;20054;-84
2023/05/06 02:07:01;;;;;;;16.20;13.35;;;;;;;;;;5012654;28;20050;-84
2023/05/06 02:09:28;;;;;;;18.02;14.07;;;;;;;;;;5012501;28;20448;-83
2023/05/06 02:11:56;;;;;;;18.70;13.85;;;;;;;;;;5012295;28;20414;-84
2023/05/06 02:14:23;;;;;;;18.80;14.32;;;;;;;;;;5012202;28;20403;-83
2023/05/06 02:16:50;;;;;;;22.98;14.80;;;;;;;;;;5012403;28;20046;-83
2023/05/06 02:19:18;;;;;;;16.73;13.20;;;;;;;;;;5013429;28;20060;-84
2023/05/06 02:21:45;;;;;;;19.90;15.10;;;;;;;;;;5013260;28;20046;-83
2023/05/06 02:24:12;;;;;;;17.40;14.55;;;;;;;;;;5013218;28;20081;-83
2023/05/06 02:26:39;;;;;;;23.90;15.05;;;;;;;;;;5012328;28;20383;-83
2023/05/06 02:29:06;;;;;;;23.00;14.73;;;;;;;;;;5011754;28;20081;-83
2023/05/06 02:31:34;;;;;;;23.40;15.65;;;;;;;;;;5011343;28;20548;-83
2023/05/06 02:34:01;;;;;;;27.85;18.10;;;;;;;;;;5012809;28;20136;-83
2023/05/06 02:36:28;;;;;;;19.38;14.95;;;;;;;;;;5011790;28;20046;-83
2023/05/06 02:38:55;;;;;;;24.83;16.75;;;;;;;;;;5011963;28;20050;-83
2023/05/06 02:41:22;;;;;;;21.40;15.43;;;;;;;;;;5012768;28;20494;-83
2023/05/06 02:43:50;;;;;;;20.60;14.02;;;;;;;;;;5011609;28;20056;-83
2023/05/06 02:46:17;;;;;;;24.23;15.45;;;;;;;;;;5011700;28;20045;-83
2023/05/06 02:48:45;;;;;;;21.63;15.23;;;;;;;;;;5011816;28;20048;-84
2023/05/06 02:51:12;;;;;;;22.85;15.98;;;;;;;;;;5011746;28;20053;-83
2023/05/06 02:53:39;;;;;;;22.42;15.60;;;;;;;;;;5013104;28;20053;-83
2023/05/06 02:56:07;;;;;;;21.98;15.23;;;;;;;;;;5011668;28;20077;-82
2023/05/06 02:58:34;;;;;;;19.88;14.85;;;;;;;;;;5011528;28;20573;-83
2023/05/06 03:01:01;;;;;;;24.20;15.55;;;;;;;;;;5012672;28;20056;-83
2023/05/06 03:03:28;;;;;;;20.30;14.23;;;;;;;;;;5011431;28;20564;-83
2023/05/06 03:05:55;;;;;;;14.98;13.20;;;;;;;;;;5011096;28;20056;-83
2023/05/06 03:08:23;;;;;;;17.85;11.82;;;;;;;;;;5011510;28;20054;-83
2023/05/06 03:10:50;;;;;;;14.82;11.73;;;;;;;;;;5011521;28;20482;-83
2023/05/06 03:13:17;;;;;;;17.67;11.88;;;;;;;;;;5011265;28;20060;-83
2023/05/06 03:15:45;;;;;;;15.60;12.00;;;;;;;;;;5012575;28;20494;-83
2023/05/06 03:18:12;;;;;;;16.80;11.65;;;;;;;;;;5011249;28;20401;-82
2023/05/06 03:20:39;;;;;;;17.17;11.82;;;;;;;;;;5011469;28;20050;-83
2023/05/06 03:23:06;;;;;;;17.95;12.35;;;;;;;;;;5010869;28;20137;-83
2023/05/06 03:25:33;;;;;;;22.20;13.52;;;;;;;;;;5012087;28;20059;-82
2023/05/06 03:28:01;;;;;;;15.55;11.77;;;;;;;;;;5012414;28;20068;-83
2023/05/06 03:30:28;;;;;;;21.00;12.27;;;;;;;;;;5011141;28;20052;-83
2023/05/06 03:32:55;;;;;;;19.92;14.52;;;;;;;;;;5011101;28;20641;-84
2023/05/06 03:35:23;;;;;;;21.52;15.48;;;;;;;;;;5012151;28;20050;-83
2023/05/06 03:37:50;;;;;;;25.40;16.60;;;;;;;;;;5011014;28;20060;-83
2023/05/06 03:40:17;;;;;;;28.83;17.05;;;;;;;;;;5011192;28;20057;-83
2023/05/06 03:42:45;;;;;;;20.17;15.48;;;;;;;;;;5011146;28;20513;-83
2023/05/06 03:45:12;;;;;;;20.70;15.25;;;;;;;;;;5014534;28;20050;-83
2023/05/06 03:47:39;;;;;;;20.92;15.07;;;;;;;;;;5014885;28;20079;-82
2023/05/06 03:50:06;;;;;;;23.08;15.98;;;;;;;;;;5014853;28;20085;-83
2023/05/06 03:52:34;;;;;;;20.48;14.50;;;;;;;;;;5014886;28;20082;-83
2023/05/06 03:55:02;;;;;;;19.08;13.60;;;;;;;;;;5014673;28;20077;-83
2023/05/06 03:57:29;;;;;;;16.50;13.23;;;;;;;;;;5014615;28;20048;-84
2023/05/06 03:59:56;;;;;;;20.05;13.63;;;;;;;;;;5015871;28;20049;-84
2023/05/06 04:02:23;;;;;;;16.40;13.90;;;;;;;;;;5014989;28;20050;-83
2023/05/06 04:04:51;;;;;;;29.25;21.70;;;;;;;;;;5014467;28;20056;-83
2023/05/06 04:07:18;;;;;;;23.85;18.67;;;;;;;;;;5015902;28;20046;-83
2023/05/06 04:09:45;;;;;;;20.58;15.13;;;;;;;;;;5015947;28;20060;-83
2023/05/06 04:12:12;;;;;;;21.35;14.98;;;;;;;;;;5014361;28;20521;-83
2023/05/06 04:14:39;;;;;;;32.55;17.25;;;;;;;;;;5014561;28;20057;-83
2023/05/06 04:17:06;;;;;;;30.35;16.77;;;;;;;;;;5015799;28;20049;-83
2023/05/06 04:19:34;;;;;;;22.25;15.77;;;;;;;;;;5014515;28;20137;-83
2023/05/06 04:22:01;;;;;;;20.95;15.10;;;;;;;;;;5015431;28;20050;-83
2023/05/06 04:24:30;;;;;;;25.70;17.42;;;;;;;;;;5014255;28;20045;-83
2023/05/06 04:26:57;;;;;;;30.02;19.33;;;;;;;;;;5014261;28;20050;-83
2023/05/06 04:29:25;;;;;;;32.30;21.50;;;;;;;;;;5014156;28;20125;-83
2023/05/06 04:31:52;;;;;;;20.92;16.00;;;;;;;;;;5014116;28;20049;-83
2023/05/06 04:34:20;;;;;;;25.25;17.15;;;;;;;;;;5015282;28;20053;-83
2023/05/06 04:36:48;;;;;;;25.58;17.15;;;;;;;;;;5014154;28;20423;-84
2023/05/06 04:39:16;;;;;;;24.90;16.17;;;;;;;;;;5015460;28;20103;-83
2023/05/06 04:41:44;;;;;;;19.67;15.30;;;;;;;;;;5014101;28;20057;-84
2023/05/06 04:44:11;;;;;;;26.65;15.05;;;;;;;;;;5013801;28;20494;-83
2023/05/06 04:46:38;;;;;;;29.05;15.68;;;;;;;;;;5013823;28;20045;-83
2023/05/06 04:49:06;;;;;;;20.25;13.95;;;;;;;;;;5014015;28;20066;-84
2023/05/06 04:51:33;;;;;;;22.38;13.80;;;;;;;;;;5014259;28;20053;-83
2023/05/06 04:54:00;;;;;;;26.67;15.80;;;;;;;;;;5013034;28;20050;-83
2023/05/06 04:56:28;;;;;;;21.55;15.63;;;;;;;;;;5014229;28;20137;-83
2023/05/06 04:58:55;;;;;;;24.42;16.33;;;;;;;;;;5013892;28;20050;-83
2023/05/06 05:01:22;;;;;;;25.92;18.38;;;;;;;;;;5013843;28;20070;-83
2023/05/06 05:03:50;;;;;;;25.10;17.52;;;;;;;;;;5015151;28;20050;-83
2023/05/06 05:06:17;;;;;;;22.48;16.40;;;;;;;;;;5013182;28;20052;-83
2023/05/06 05:08:44;;;;;;;15.40;13.32;;;;;;;;;;5013764;28;20053;-83
2023/05/06 05:11:12;;;;;;;12.38;11.07;;;;;;;;;;5013689;28;20049;-84
2023/05/06 05:13:39;;;;;;;10.93;9.60;;;;;;;;;;5013480;28;20042;-83
2023/05/06 05:16:06;;;;;;;11.15;8.27;;;;;;;;;;5013617;28;20486;-83
2023/05/06 05:18:34;;;;;;;9.43;7.35;;;;;;;;;;5015038;28;20418;-84
2023/05/06 05:21:01;;;;;;;11.13;6.35;;;;;;;;;;5014665;28;20056;-84
2023/05/06 05:23:28;;;;;;;5.88;5.38;;;;;;;;;;5013616;28;20089;-83
2023/05/06 05:25:55;;;;;;;7.10;5.90;;;;;;;;;;5013413;28;20052;-84
2023/05/06 05:28:22;;;;;;;6.22;5.35;;;;;;;;;;5014544;28;20054;-83
2023/05/06 05:30:50;;;;;;;7.18;4.82;;;;;;;;;;5013292;28;20494;-82
2023/05/06 05:33:17;;;;;;;4.50;4.20;;;;;;;;;;5013295;28;20100;-83
2023/05/06 05:35:44;;;;;;;4.95;4.30;;;;;;;;;;5013117;28;20054;-83
2023/05/06 05:38:13;;;;;;;4.63;3.90;;;;;;;;;;5013224;28;20052;-82
2023/05/06 05:40:40;;;;;;;4.43;4.03;;;;;;;;;;5013088;28;20486;-83
2023/05/06 05:43:08;;;;;;;4.25;3.92;;;;;;;;;;5013046;28;20124;-83
2023/05/06 05:45:35;;;;;;;4.82;4.53;;;;;;;;;;5013253;28;20054;-83
2023/05/06 05:48:02;;;;;;;6.10;5.18;;;;;;;;;;5014095;28;20041;-83
2023/05/06 05:50:30;;;;;;;5.45;4.57;;;;;;;;;;5013145;28;20076;-83
2023/05/06 05:52:57;;;;;;;4.82;4.45;;;;;;;;;;5013898;28;20056;-83
2023/05/06 05:55:24;;;;;;;4.38;4.05;;;;;;;;;;5012871;28;20054;-83
2023/05/06 05:57:51;;;;;;;4.20;3.88;;;;;;;;;;5013022;28;20049;-83
2023/05/06 06:00:19;;;;;;;3.72;3.42;;;;;;;;;;5013904;28;20050;-83
2023/05/06 06:02:46;;;;;;;2.78;2.58;;;;;;;;;;5013827;28;20202;-83
2023/05/06 06:05:13;;;;;;;13.15;4.72;;;;;;;;;;5013982;28;20045;-84
2023/05/06 06:07:40;;;;;;;20.27;4.60;;;;;;;;;;5011937;28;20045;-84
2023/05/06 06:10:08;;;;;;;3.58;3.38;;;;;;;;;;5012750;28;20391;-85
2023/05/06 06:12:35;;;;;;;3.72;3.38;;;;;;;;;;5013072;28;20057;-84
2023/05/06 06:15:02;;;;;;;4.97;3.58;;;;;;;;;;5012559;28;20054;-84
2023/05/06 06:17:30;;;;;;;3.92;3.50;;;;;;;;;;5013954;28;20094;-84
2023/05/06 06:19:58;;;;;;;5.63;3.30;;;;;;;;;;5014054;28;20077;-85
2023/05/06 06:22:25;;;;;;;5.05;3.47;;;;;;;;;;5012264;28;20058;-85
2023/05/06 06:24:52;;;;;;;4.25;3.60;;;;;;;;;;5013789;28;20132;-84
2023/05/06 06:27:19;;;;;;;4.10;3.72;;;;;;;;;;5012870;28;20134;-83
2023/05/06 06:29:48;;;;;;;4.22;3.90;;;;;;;;;;5013627;28;20045;-85
2023/05/06 06:32:15;;;;;;;19.48;16.98;;;;;;;;;;5012711;28;20045;-84
2023/05/06 06:34:43;;;;;;;35.55;31.05;;;;;;;;;;5013644;28;20056;-84
2023/05/06 06:37:10;;;;;;;29.45;25.85;;;;;;;;;;5013351;28;20064;-84
2023/05/06 06:39:37;;;;;;;14.43;11.65;;;;;;;;;;5013744;28;20418;-84
2023/05/06 06:42:05;;;;;;;12.70;11.32;;;;;;;;;;5011685;28;20490;-84
2023/05/06 06:44:33;;;;;;;10.27;9.15;;;;;;;;;;5013469;28;20049;-84
2023/05/06 06:47:01;;;;;;;6.97;5.38;;;;;;;;;;5012341;28;20414;-84
2023/05/06 06:49:30;;;;;;;12.93;11.73;;;;;;;;;;5012106;28;20049;-84
2023/05/06 06:51:57;;;;;;;5.22;4.75;;;;;;;;;;5012290;28;20403;-84
2023/05/06 06:54:24;;;;;;;7.10;6.60;;;;;;;;;;5012197;28;20045;-84
2023/05/06 06:56:56;;;;;;;3.95;3.60;;;;;;;;;;5013299;28;20053;-84
2023/05/06 06:59:23;;;;;;;3.90;3.60;;;;;;;;;;5012325;28;20041;-84
2023/05/06 07:01:50;;;;;;;2.78;2.60;;;;;;;;;;5011685;28;20103;-85
2023/05/06 07:04:17;;;;;;;3.22;3.03;;;;;;;;;;5013326;28;20060;-86
2023/05/06 07:06:45;;;;;;;6.07;5.45;;;;;;;;;;5012218;28;20050;-85
2023/05/06 07:09:12;;;;;;;2.72;2.45;;;;;;;;;;5012089;28;20086;-85
2023/05/06 07:11:39;;;;;;;2.50;2.40;;;;;;;;;;5011833;28;20054;-84
2023/05/06 07:14:07;;;;;;;2.85;2.58;;;;;;;;;;5012222;28;20057;-84
2023/05/06 07:16:34;;;;;;;4.70;4.38;;;;;;;;;;5012323;28;20041;-85
2023/05/06 07:19:01;;;;;;;2.83;2.63;;;;;;;;;;5012106;28;20050;-85
2023/05/06 07:21:31;;;;;;;2.53;2.25;;;;;;;;;;5013380;28;20056;-84
2023/05/06 07:23:59;;;;;;;3.25;2.22;;;;;;;;;;5012255;28;20056;-85
2023/05/06 07:26:27;;;;;;;2.10;1.90;;;;;;;;;;5012358;28;20046;-86
2023/05/06 07:28:54;;;;;;;3.08;2.80;;;;;;;;;;5012394;28;20054;-85
2023/05/06 07:31:24;;;;;;;1.88;1.85;;;;;;;;;;5012173;28;20064;-85
2023/05/06 07:33:51;;;;;;;2.03;1.92;;;;;;;;;;5012203;28;20050;-85
2023/05/06 07:36:18;;;;;;;2.10;2.00;;;;;;;;;;5013122;28;20050;-85
2023/05/06 07:38:45;;;;;;;1.85;1.85;;;;;;;;;;5012313;28;20057;-86
2023/05/06 07:41:13;;;;;;;2.45;2.30;;;;;;;;;;5012368;28;20050;-85
2023/05/06 07:43:40;;;;;;;2.17;1.95;;;;;;;;;;5011882;28;20045;-86
2023/05/06 07:46:07;;;;;;;1.35;1.10;;;;;;;;;;5013212;28;20058;-86
2023/05/06 07:48:34;;;;;;;1.70;0.80;;;;;;;;;;5012550;28;20085;-85
2023/05/06 07:51:02;;;;;;;1.83;0.90;;;;;;;;;;5012209;28;20502;-87
2023/05/06 07:53:29;;;;;;;0.80;0.75;;;;;;;;;;5017240;28;20054;-87
2023/05/06 07:56:00;;;;;;;1.30;0.85;;;;;;;;;;5012303;28;20053;-85
2023/05/06 07:58:30;;;;;;;1.13;0.90;;;;;;;;;;5013082;28;20050;-86
2023/05/06 08:00:57;;;;;;;0.70;0.70;;;;;;;;;;5012166;28;20064;-88
2023/05/06 08:03:25;;;;;;;0.73;0.73;;;;;;;;;;5013005;28;20050;-87
2023/05/06 08:05:54;;;;;;;1.75;0.80;;;;;;;;;;5013105;28;20112;-87
2023/05/06 08:08:22;;;;;;;4.78;1.10;;;;;;;;;;5012405;28;20125;-87
2023/05/06 08:10:49;;;;;;;0.80;0.80;;;;;;;;;;5011857;28;20049;-87
2023/05/06 08:13:16;;;;;;;4.13;1.08;;;;;;;;;;5011969;28;20565;-87
2023/05/06 08:15:44;;;;;;;0.93;0.93;;;;;;;;;;5012070;28;20057;-87
2023/05/06 08:18:11;;;;;;;1.52;0.88;;;;;;;;;;5013222;28;20081;-88
2023/05/06 08:20:48;;;;;;;1.38;0.90;;;;;;;;;;5013204;28;20054;-87
2023/05/06 08:23:15;;;;;;;0.50;0.50;;;;;;;;;;5012842;28;20049;-87
2023/05/06 08:25:43;;;;;;;0.70;0.70;;;;;;;;;;5013101;28;20060;-86
2023/05/06 08:28:10;;;;;;;0.75;0.50;;;;;;;;;;5012076;28;20049;-87
2023/05/06 08:30:37;;;;;;;1.25;0.80;;;;;;;;;;5015337;28;20053;-86
2023/05/06 08:33:04;;;;;;;0.98;0.82;;;;;;;;;;5015531;28;20058;-86
2023/05/06 08:35:31;;;;;;;0.95;0.70;;;;;;;;;;5016358;28;20073;-87
2023/05/06 08:37:59;;;;;;;1.98;0.93;;;;;;;;;;5016372;28;20160;-88
2023/05/06 08:40:28;;;;;;;0.70;0.70;;;;;;;;;;5015528;28;20046;-86
2023/05/06 08:42:56;;;;;;;0.70;0.60;;;;;;;;;;5015251;28;20128;-88
2023/05/06 08:45:24;;;;;;;3.80;1.20;;;;;;;;;;5015444;28;20050;-88
2023/05/06 08:47:54;;;;;;;1.00;0.70;;;;;;;;;;5015400;28;20070;-88
2023/05/06 08:50:22;;;;;;;0.70;0.50;;;;;;;;;;5015107;28;20068;-88
2023/05/06 08:52:50;;;;;;;0.80;0.80;;;;;;;;;;5016272;28;20050;-87
2023/05/06 08:55:18;;;;;;;1.15;0.40;;;;;;;;;;5016407;28;20133;-87
2023/05/06 08:57:45;;;;;;;1.23;0.50;;;;;;;;;;5015726;28;20050;-90
2023/05/06 09:00:13;;;;;;;1.40;0.60;;;;;;;;;;5015771;28;20104;-90
2023/05/06 09:02:42;;;;;;;0.77;0.50;;;;;;;;;;5015461;28;20096;-90
2023/05/06 09:05:10;;;;;;;2.10;0.80;;;;;;;;;;5015483;28;20053;-88
2023/05/06 09:07:38;;;;;;;0.60;0.30;;;;;;;;;;5015523;28;20049;-90
2023/05/06 09:10:06;;;;;;;1.00;0.70;;;;;;;;;;5017930;28;20104;-90
2023/05/06 09:12:36;;;;;;;0.65;0.50;;;;;;;;;;5015410;28;20064;-91
2023/05/06 09:15:04;;;;;;;1.02;0.40;;;;;;;;;;5015334;28;20045;-88
2023/05/06 09:17:31;;;;;;;2.33;0.50;;;;;;;;;;5015033;28;20054;-90
2023/05/06 09:19:59;;;;;;;1.00;0.60;;;;;;;;;;5015770;28;20119;-89
2023/05/06 09:22:27;;;;;;;2.25;0.50;;;;;;;;;;5016022;28;20054;-88
2023/05/06 09:24:55;;;;;;;0.60;0.50;;;;;;;;;;5015533;28;20050;-90
2023/05/06 09:27:35;;;;;;;0.70;0.70;;;;;;;;;;5015795;28;20142;-92
2023/05/06 09:30:07;;;;;;;0.98;0.60;;;;;;;;;;5015602;28;20471;-86
2023/05/06 09:32:35;;;;;;;0.50;0.50;;;;;;;;;;5015877;28;20137;-90
2023/05/06 09:35:06;;;;;;;0.40;0.40;;;;;;;;;;5022305;28;20050;-89
2023/05/06 09:37:33;;;;;;;0.68;0.50;;;;;;;;;;5022130;28;20049;-90
2023/05/06 09:40:00;;;;;;;1.48;0.45;;;;;;;;;;5017086;28;20100;-93
2023/05/06 09:42:28;;;;;;;0.50;0.50;;;;;;;;;;5016698;28;20053;-86
2023/05/06 09:44:57;;;;;;;2.67;0.80;;;;;;;;;;5016093;28;20056;-88
2023/05/06 09:47:34;;;;;;;1.17;0.90;;;;;;;;;;5016242;28;20049;-90
2023/05/06 09:50:02;;;;;;;1.15;0.60;;;;;;;;;;5014684;28;20046;-87
2023/05/06 09:52:30;;;;;;;1.20;0.43;;;;;;;;;;5016408;28;20061;-88
2023/05/06 09:54:57;;;;;;;2.92;0.68;;;;;;;;;;5017144;28;20137;-89
2023/05/06 09:57:25;;;;;;;1.13;0.60;;;;;;;;;;5015831;28;20494;-89
2023/05/06 09:59:53;;;;;;;1.05;0.60;;;;;;;;;;5015733;28;20053;-90
2023/05/06 10:02:22;;;;;;;0.60;0.55;;;;;;;;;;5016655;28;20050;-90
2023/05/06 10:04:50;;;;;;;0.40;0.40;;;;;;;;;;5019523;28;20078;-90
2023/05/06 10:07:21;;;;;;;0.88;0.50;;;;;;;;;;5016063;28;20045;-87
2023/05/06 10:09:52;;;;;;;1.00;0.80;;;;;;;;;;5017912;28;20465;-89
2023/05/06 10:12:19;;;;;;;0.45;0.45;;;;;;;;;;5016826;28;20137;-90
2023/05/06 10:14:46;;;;;;;0.50;0.45;;;;;;;;;;5016869;28;20053;-91
2023/05/06 10:17:14;;;;;;;0.68;0.40;;;;;;;;;;5015490;28;20046;-90
2023/05/06 10:19:44;;;;;;;1.10;0.40;;;;;;;;;;5017723;28;20045;-91
2023/05/06 10:22:18;;;;;;;0.57;0.40;;;;;;;;;;5016339;28;20108;-89
2023/05/06 10:24:52;;;;;;;0.60;0.40;;;;;;;;;;5028036;28;20033;-87
2023/05/06 10:27:21;;;;;;;2.25;0.52;;;;;;;;;;5016304;28;20054;-88
2023/05/06 10:29:48;;;;;;;3.40;0.30;;;;;;;;;;5014980;28;20140;-89
2023/05/06 10:32:16;;;;;;;3.90;0.50;;;;;;;;;;5015873;28;20054;-90
2023/05/06 10:34:52;;;;;;;0.55;0.30;;;;;;;;;;5020514;28;20052;-91
2023/05/06 10:37:24;;;;;;;0.30;0.30;;;;;;;;;;5014824;28;20052;-92
2023/05/06 10:39:53;;;;;;;0.32;0.20;;;;;;;;;;5018524;28;20475;-91
2023/05/06 10:42:20;;;;;;;0.63;0.30;;;;;;;;;;5018595;28;20064;-90
2023/05/06 10:45:03;;;;;;;0.32;0.20;;;;;;;;;;5016142;28;20050;-89
2023/05/06 10:47:49;;;;;;;0.52;0.40;;;;;;;;;;5015220;28;20112;-92
2023/05/06 10:50:26;;;;;;;0.30;0.30;;;;;;;;;;5014669;28;20050;-89
2023/05/06 10:52:54;;;;;;;0.40;0.30;;;;;;;;;;5014967;28;20057;-91
2023/05/06 10:55:25;;;;;;;1.02;0.40;;;;;;;;;;5017068;28;20104;-91
2023/05/06 10:57:56;;;;;;;0.55;0.40;;;;;;;;;;5015863;28;20056;-89
2023/05/06 11:00:23;;;;;;;1.02;0.40;;;;;;;;;;5015842;28;20054;-88
2023/05/06 11:02:56;;;;;;;0.65;0.60;;;;;;;;;;5014354;28;20136;-86
2023/05/06 11:05:24;;;;;;;1.10;0.22;;;;;;;;;;5014171;28;20486;-88
2023/05/06 11:07:52;;;;;;;1.38;0.50;;;;;;;;;;5014454;28;20058;-90
2023/05/06 11:10:39;;;;;;;1.35;0.52;;;;;;;;;;5014477;28;20149;-88
2023/05/06 11:13:23;;;;;;;0.77;0.57;;;;;;;;;;5031977;28;20490;-89
2023/05/06 11:15:50;;;;;;;;;;;;;;;;;;5014403;28;20045;-92
2023/05/06 11:18:25;;;;;;;0.73;0.40;;;;;;;;;;5015360;28;19975;-90
2023/05/06 11:21:01;;;;;;;0.70;0.30;;;;;;;;;;5014084;28;20387;-90
2023/05/06 11:23:41;;;;;;;0.50;0.50;;;;;;;;;;5013221;28;20061;-90
2023/05/06 11:26:09;;;;;;;1.05;0.50;;;;;;;;;;5013332;28;20521;-91
2023/05/06 11:28:36;;;;;;;0.75;0.75;;;;;;;;;;5013565;28;20046;-91
2023/05/06 11:31:03;;;;;;;10.00;0.80;;;;;;;;;;5013204;28;20054;-91
2023/05/06 11:33:32;;;;;;;3.67;0.75;;;;;;;;;;5013078;28;20084;-87
2023/05/06 11:36:02;;;;;;;7.50;1.42;;;;;;;;;;5013150;28;20065;-91
2023/05/06 11:38:48;;;;;;;0.50;0.47;;;;;;;;;;5015601;28;20060;-88
2023/05/06 11:41:16;;;;;;;1.10;0.60;;;;;;;;;;5022054;28;20153;-90
2023/05/06 11:43:48;;;;;;;0.90;0.43;;;;;;;;;;5014733;28;20050;-89
2023/05/06 11:46:17;;;;;;;0.47;0.47;;;;;;;;;;5017314;28;20053;-91
2023/05/06 11:48:45;;;;;;;4.43;0.70;;;;;;;;;;5018730;28;20100;-90
2023/05/06 11:51:12;;;;;;;0.80;0.60;;;;;;;;;;5013600;28;20058;-88
2023/05/06 11:53:40;;;;;;;1.40;0.57;;;;;;;;;;5014706;28;20046;-89
2023/05/06 11:56:07;;;;;;;1.98;0.50;;;;;;;;;;5014335;28;20133;-91
2023/05/06 11:58:34;;;;;;;9.77;1.08;;;;;;;;;;5013430;28;20387;-90
2023/05/06 12:01:03;;;;;;;803.80;40.53;;;;;;;;;;5012892;28;20050;-88
2023/05/06 12:03:31;;;;;;;0.88;0.50;;;;;;;;;;5013851;28;20052;-87
2023/05/06 12:05:59;;;;;;;2.58;0.75;;;;;;;;;;5017045;28;20141;-87
2023/05/06 12:08:31;;;;;;;0.75;0.50;;;;;;;;;;5017713;28;20050;-90
2023/05/06 12:11:02;;;;;;;1.90;0.40;;;;;;;;;;5018138;28;20508;-90
2023/05/06 12:13:30;;;;;;;2.10;0.50;;;;;;;;;;5018088;28;20054;-90
2023/05/06 12:15:58;;;;;;;2.88;0.80;;;;;;;;;;5017158;28;20072;-88
2023/05/06 12:18:25;;;;;;;1.70;0.40;;;;;;;;;;5018398;28;20054;-91
2023/05/06 12:20:53;;;;;;;1.17;0.40;;;;;;;;;;5018335;28;20050;-92
2023/05/06 12:23:20;;;;;;;1.75;1.23;;;;;;;;;;5019377;28;20516;-88
2023/05/06 12:25:59;;;;;;;0.25;0.25;;;;;;;;;;5017347;28;20422;-88
2023/05/06 12:28:27;;;;;;;0.80;0.35;;;;;;;;;;5016378;28;20078;-89
2023/05/06 12:30:54;;;;;;;1.23;0.40;;;;;;;;;;5016276;28;20050;-91
2023/05/06 12:33:21;;;;;;;1.48;0.57;;;;;;;;;;5018369;28;20080;-83
2023/05/06 12:35:53;;;;;;;0.70;0.65;;;;;;;;;;5016980;28;20496;-90
2023/05/06 12:38:20;;;;;;;0.80;0.80;;;;;;;;;;5016648;28;20542;-90
2023/05/06 12:40:54;;;;;;;1.40;0.73;;;;;;;;;;5017270;28;20057;-90
2023/05/06 12:43:32;;;;;;;1.38;0.80;;;;;;;;;;5016436;28;20057;-92
2023/05/06 12:46:05;;;;;;;3.15;0.30;;;;;;;;;;5016998;28;20056;-90
2023/05/06 12:48:33;;;;;;;0.90;0.60;;;;;;;;;;5017598;28;20409;-90
2023/05/06 12:51:00;;;;;;;0.50;0.47;;;;;;;;;;5017036;28;20077;-89
2023/05/06 12:53:32;;;;;;;8.05;1.30;;;;;;;;;;5014719;28;20053;-87
2023/05/06 12:55:59;;;;;;;35.80;2.35;;;;;;;;;;5023251;28;20052;-88
2023/05/06 12:58:26;;;;;;;4.90;0.77;;;;;;;;;;5018091;28;20049;-87
2023/05/06 13:00:53;;;;;;;1.25;0.50;;;;;;;;;;5015910;28;20048;-90
2023/05/06 13:03:20;;;;;;;1.88;1.10;;;;;;;;;;5015420;28;20100;-90
2023/05/06 13:05:50;;;;;;;1.25;1.00;;;;;;;;;;5015961;28;20081;-88
2023/05/06 13:08:18;;;;;;;1.80;0.95;;;;;;;;;;5014685;28;20112;-89
2023/05/06 13:10:45;;;;;;;1.55;0.65;;;;;;;;;;5015267;28;20048;-87
2023/05/06 13:13:12;;;;;;;4.53;3.38;;;;;;;;;;5014760;28;20058;-90
2023/05/06 13:15:40;;;;;;;0.45;0.40;;;;;;;;;;5014658;28;20461;-89
2023/05/06 13:18:08;;;;;;;2.90;1.00;;;;;;;;;;5016071;28;20049;-90
2023/05/06 13:20:35;;;;;;;0.75;0.65;;;;;;;;;;5014758;28;20064;-88
2023/05/06 13:23:03;;;;;;;0.98;0.60;;;;;;;;;;5014221;28;20065;-90
2023/05/06 13:25:30;;;;;;;2.78;0.35;;;;;;;;;;5014211;28;20128;-90
2023/05/06 13:27:57;;;;;;;3.03;0.63;;;;;;;;;;5014992;28;20046;-91
2023/05/06 13:30:25;;;;;;;1.15;0.50;;;;;;;;;;5015684;28;20073;-91
2023/05/06 13:32:52;;;;;;;4.15;0.65;;;;;;;;;;5017335;28;20348;-91
2023/05/06 13:35:19;;;;;;;0.60;0.40;;;;;;;;;;5014678;28;20060;-89
2023/05/06 13:37:47;;;;;;;2.20;1.60;;;;;;;;;;5014769;28;20050;-89
2023/05/06 13:40:14;;;;;;;10.43;5.47;;;;;;;;;;5015220;28;20446;-87
2023/05/06 13:42:41;;;;;;;31.17;2.10;;;;;;;;;;5014523;28;20076;-88
2023/05/06 13:45:09;;;;;;;81.25;3.85;;;;;;;;;;5014766;28;20045;-88
2023/05/06 13:47:36;;;;;;;1.67;0.70;;;;;;;;;;5015139;28;20053;-89
2023/05/06 13:50:04;;;;;;;24.02;1.42;;;;;;;;;;5014548;28;20096;-86
2023/05/06 13:52:32;;;;;;;3.40;0.60;;;;;;;;;;5013638;28;20162;-87
2023/05/06 13:54:59;;;;;;;4.15;0.40;;;;;;;;;;5013566;28;20151;-87
2023/05/06 13:57:26;;;;;;;1.92;0.40;;;;;;;;;;5018496;28;20062;-86
2023/05/06 13:59:53;;;;;;;10.25;7.35;;;;;;;;;;5014823;28;20085;-87
2023/05/06 14:02:20;;;;;;;3.00;0.50;;;;;;;;;;5013695;28;20505;-90
2023/05/06 14:04:48;;;;;;;1.83;1.00;;;;;;;;;;5013365;28;20054;-88
2023/05/06 14:07:15;;;;;;;0.70;0.70;;;;;;;;;;5014495;28;20054;-89
2023/05/06 14:09:42;;;;;;;2.20;0.60;;;;;;;;;;5012677;28;20077;-89
2023/05/06 14:12:09;;;;;;;5.47;3.47;;;;;;;;;;5021559;28;20050;-88
2023/05/06 14:14:37;;;;;;;4.78;3.08;;;;;;;;;;5015864;28;20058;-89
2023/05/06 14:17:04;;;;;;;1.73;0.88;;;;;;;;;;5013195;28;20085;-89
2023/05/06 14:19:31;;;;;;;1.67;0.60;;;;;;;;;;5012950;28;20104;-89
2023/05/06 14:21:58;;;;;;;2.65;0.40;;;;;;;;;;5013199;28;20076;-87
2023/05/06 14:24:26;;;;;;;0.70;0.70;;;;;;;;;;5013137;28;20056;-89
2023/05/06 14:26:54;;;;;;;0.88;0.73;;;;;;;;;;5013304;28;20050;-89
2023/05/06 14:29:21;;;;;;;6.80;0.95;;;;;;;;;;5014196;28;20145;-89
2023/05/06 14:31:48;;;;;;;6.03;0.80;;;;;;;;;;5012907;28;20410;-87
2023/05/06 14:34:16;;;;;;;6.68;1.38;;;;;;;;;;5012822;28;20045;-89
2023/05/06 14:36:43;;;;;;;1.02;0.50;;;;;;;;;;5013065;28;20406;-88
2023/05/06 14:39:10;;;;;;;1.98;0.70;;;;;;;;;;5013981;28;20483;-89